createdAt,value
2017-08-09T00:00:33.972Z,74.08
2017-08-09T00:01:33.664Z,73.89
2017-08-09T00:02:33.971Z,74.08
2017-08-09T00:03:33.990Z,73.99
2017-08-09T00:04:33.968Z,74.57
2017-08-09T00:05:33.975Z,74.47
2017-08-09T00:06:33.955Z,74.08
2017-08-09T00:07:33.954Z,74.37
2017-08-09T00:08:33.965Z,74.85
2017-08-09T00:09:33.972Z,74.47
2017-08-09T00:10:33.973Z,74.57
2017-08-09T00:11:33.954Z,74.27
2017-08-09T00:12:33.962Z,74.57
2017-08-09T00:13:33.964Z,74.66
2017-08-09T00:14:33.967Z,74.57
2017-08-09T00:15:33.955Z,74.76
2017-08-09T00:16:33.963Z,74.76
2017-08-09T00:17:33.946Z,74.47
2017-08-09T00:18:33.956Z,74.57
2017-08-09T00:19:33.956Z,74.57
2017-08-09T00:20:33.952Z,74.47
2017-08-09T00:21:33.943Z,74.76
2017-08-09T00:22:33.952Z,74.57
2017-08-09T00:23:33.661Z,74.76
2017-08-09T00:24:33.942Z,74.66
2017-08-09T00:25:33.640Z,74.27
2017-08-09T00:26:33.947Z,74.85
2017-08-09T00:27:33.949Z,74.76
2017-08-09T00:28:33.937Z,74.47
2017-08-09T00:29:33.947Z,74.57
2017-08-09T00:30:33.950Z,74.47
2017-08-09T00:31:33.940Z,74.66
2017-08-09T00:32:33.945Z,74.57
2017-08-09T00:33:33.930Z,74.57
2017-08-09T00:34:33.935Z,74.76
2017-08-09T00:35:33.934Z,75.14
2017-08-09T00:36:33.941Z,74.76
2017-08-09T00:37:33.938Z,74.76
2017-08-09T00:38:33.943Z,74.85
2017-08-09T00:39:33.935Z,74.76
2017-08-09T00:40:33.934Z,74.57
2017-08-09T00:41:33.623Z,75.14
2017-08-09T00:42:33.937Z,75.24
2017-08-09T00:43:33.928Z,75.34
2017-08-09T00:44:33.921Z,74.95
2017-08-09T00:45:33.936Z,75.05
2017-08-09T00:46:33.919Z,74.95
2017-08-09T00:47:33.930Z,74.95
2017-08-09T00:48:33.928Z,75.14
2017-08-09T00:49:33.929Z,75.05
2017-08-09T00:50:33.925Z,75.14
2017-08-09T00:51:33.926Z,75.14
2017-08-09T00:52:33.921Z,75.14
2017-08-09T00:53:33.928Z,74.95
2017-08-09T00:54:33.905Z,75.05
2017-08-09T00:55:33.918Z,74.95
2017-08-09T00:56:33.909Z,75.14
2017-08-09T00:57:33.908Z,74.95
2017-08-09T00:58:33.905Z,75.34
2017-08-09T00:59:33.914Z,75.43
2017-08-09T01:00:33.918Z,75.24
2017-08-09T01:01:33.919Z,75.53
2017-08-09T01:02:33.902Z,75.34
2017-08-09T01:03:33.918Z,75.4
2017-08-09T01:04:33.907Z,75.14
2017-08-09T01:05:33.912Z,75.24
2017-08-09T01:06:33.909Z,75.14
2017-08-09T01:07:33.917Z,75.34
2017-08-09T01:08:33.905Z,75.34
2017-08-09T01:09:33.901Z,75.59
2017-08-09T01:10:33.902Z,76.07
2017-08-09T01:11:33.906Z,75.97
2017-08-09T01:12:33.892Z,75.88
2017-08-09T01:13:33.907Z,75.88
2017-08-09T01:14:33.894Z,76.07
2017-08-09T01:15:33.897Z,76.84
2017-08-09T01:16:33.934Z,76.75
2017-08-09T01:17:33.901Z,77.03
2017-08-09T01:18:33.896Z,77.03
2017-08-09T01:19:33.899Z,77.03
2017-08-09T01:20:33.928Z,77.71
2017-08-09T01:21:33.892Z,77.71
2017-08-09T01:22:33.882Z,77.71
2017-08-09T01:23:33.882Z,77.9
2017-08-09T01:24:33.876Z,77.13
2017-08-09T01:25:33.878Z,77.61
2017-08-09T01:26:33.881Z,77.71
2017-08-09T01:27:34.088Z,78.09
2017-08-09T01:28:33.873Z,77.9
2017-08-09T01:29:33.869Z,78.19
2017-08-09T01:30:33.875Z,78.19
2017-08-09T01:31:33.886Z,78.19
2017-08-09T01:32:33.867Z,78.67
2017-08-09T01:33:33.904Z,78.48
2017-08-09T01:34:33.868Z,78.38
2017-08-09T01:35:33.879Z,78.92
2017-08-09T01:36:33.868Z,79.06
2017-08-09T01:37:33.876Z,79.16
2017-08-09T01:38:33.865Z,78.44
2017-08-09T01:39:33.870Z,78.63
2017-08-09T01:40:33.864Z,79.21
2017-08-09T01:41:33.868Z,79.02
2017-08-09T01:42:33.849Z,79.11
2017-08-09T01:43:33.863Z,79.98
2017-08-09T01:44:33.867Z,80.27
2017-08-09T01:45:33.859Z,80.18
2017-08-09T01:46:33.845Z,80.56
2017-08-09T01:47:33.861Z,80.37
2017-08-09T01:48:33.859Z,80.85
2017-08-09T01:49:33.859Z,81.43
2017-08-09T01:50:33.534Z,81.91
2017-08-09T01:51:33.850Z,81.72
2017-08-09T01:52:33.842Z,81.91
2017-08-09T01:53:33.845Z,81.72
2017-08-09T01:54:33.840Z,81.52
2017-08-09T01:55:33.852Z,82.59
2017-08-09T01:56:33.850Z,82.68
2017-08-09T01:57:33.851Z,82.59
2017-08-09T01:58:33.522Z,83.26
2017-08-09T01:59:33.838Z,83.26
2017-08-09T02:00:33.834Z,83.94
2017-08-09T02:01:33.837Z,84.8
2017-08-09T02:02:33.841Z,84.99
2017-08-09T02:03:33.835Z,85.09
2017-08-09T02:04:33.832Z,85.28
2017-08-09T02:05:33.828Z,85.43
2017-08-09T02:06:33.831Z,86.3
2017-08-09T02:07:33.816Z,86.4
2017-08-09T02:08:33.830Z,86.78
2017-08-09T02:09:33.813Z,88.13
2017-08-09T02:10:33.824Z,89.29
2017-08-09T02:11:33.807Z,89.39
2017-08-09T02:12:33.818Z,89.96
2017-08-09T02:13:33.823Z,90.34
2017-08-09T02:14:33.806Z,90.78
2017-08-09T02:15:33.800Z,90.88
2017-08-09T02:16:33.805Z,90.78
2017-08-09T02:17:33.508Z,91.36
2017-08-09T02:18:33.813Z,91.17
2017-08-09T02:19:33.802Z,91.36
2017-08-09T02:20:33.806Z,91.65
2017-08-09T02:21:33.803Z,91.99
2017-08-09T02:22:33.801Z,92.28
2017-08-09T02:23:33.479Z,92.18
2017-08-09T02:24:33.797Z,92.57
2017-08-09T02:25:33.782Z,91.89
2017-08-09T02:26:33.794Z,92.28
2017-08-09T02:27:33.782Z,92.57
2017-08-09T02:28:33.794Z,92.85
2017-08-09T02:29:33.789Z,93.43
2017-08-09T02:30:33.788Z,93.53
2017-08-09T02:31:33.786Z,94.2
2017-08-09T02:32:33.780Z,94.1
2017-08-09T02:33:33.766Z,94.1
2017-08-09T02:34:33.766Z,94.01
2017-08-09T02:35:33.777Z,93.58
2017-08-09T02:36:33.463Z,94.2
2017-08-09T02:37:33.766Z,94.1
2017-08-09T02:38:33.762Z,94.49
2017-08-09T02:39:33.761Z,95.02
2017-08-09T02:40:33.765Z,94.83
2017-08-09T02:41:33.745Z,94.73
2017-08-09T02:42:33.782Z,95.21
2017-08-09T02:43:33.741Z,95.31
2017-08-09T02:44:33.742Z,95.02
2017-08-09T02:45:33.739Z,95.12
2017-08-09T02:46:33.749Z,94.92
2017-08-09T02:47:33.744Z,95.12
2017-08-09T02:48:33.746Z,95.21
2017-08-09T02:49:33.729Z,95.31
2017-08-09T02:50:33.733Z,95.7
2017-08-09T02:51:33.734Z,95.7
2017-08-09T02:52:33.742Z,95.79
2017-08-09T02:53:33.725Z,95.4
2017-08-09T02:54:33.731Z,95.6
2017-08-09T02:55:33.729Z,96.17
2017-08-09T02:56:33.721Z,96.08
2017-08-09T02:57:33.719Z,95.5
2017-08-09T02:58:33.722Z,95.89
2017-08-09T02:59:33.712Z,96.37
2017-08-09T03:00:33.728Z,96.27
2017-08-09T03:01:33.402Z,96.75
2017-08-09T03:02:33.716Z,96.37
2017-08-09T03:03:33.706Z,96.75
2017-08-09T03:04:33.700Z,96.75
2017-08-09T03:05:33.699Z,96.27
2017-08-09T03:06:33.700Z,97.14
2017-08-09T03:07:33.691Z,96.85
2017-08-09T03:08:33.699Z,96.94
2017-08-09T03:09:33.683Z,97.42
2017-08-09T03:10:33.692Z,97.33
2017-08-09T03:11:33.683Z,97.09
2017-08-09T03:12:33.689Z,97.42
2017-08-09T03:13:33.669Z,97.33
2017-08-09T03:14:33.683Z,97.14
2017-08-09T03:15:33.669Z,96.94
2017-08-09T03:16:33.666Z,97.28
2017-08-09T03:17:33.664Z,97.42
2017-08-09T03:18:33.676Z,97.14
2017-08-09T03:19:33.667Z,97.38
2017-08-09T03:20:33.656Z,97.57
2017-08-09T03:21:33.665Z,97.47
2017-08-09T03:22:33.651Z,97.96
2017-08-09T03:23:33.665Z,97.57
2017-08-09T03:24:33.650Z,97.57
2017-08-09T03:25:33.697Z,97.67
2017-08-09T03:26:33.651Z,98.24
2017-08-09T03:27:33.653Z,98.34
2017-08-09T03:28:33.641Z,98.63
2017-08-09T03:29:33.639Z,98.53
2017-08-09T03:30:33.650Z,98.34
2017-08-09T03:31:33.640Z,98.72
2017-08-09T03:32:33.641Z,99.11
2017-08-09T03:33:33.636Z,99.11
2017-08-09T03:34:33.630Z,99.21
2017-08-09T03:35:33.630Z,99.4
2017-08-09T03:36:33.628Z,99.59
2017-08-09T03:37:33.619Z,99.88
2017-08-09T03:38:33.624Z,99.35
2017-08-09T03:39:33.621Z,99.49
2017-08-09T03:40:33.616Z,99.59
2017-08-09T03:41:33.619Z,99.4
2017-08-09T03:42:33.605Z,99.49
2017-08-09T03:43:33.604Z,99.68
2017-08-09T03:44:33.606Z,99.59
2017-08-09T03:45:33.603Z,99.78
2017-08-09T03:46:33.597Z,99.78
2017-08-09T03:47:33.600Z,99.78
2017-08-09T03:48:33.598Z,99.78
2017-08-09T03:49:33.597Z,99.88
2017-08-09T03:50:33.579Z,99.68
2017-08-09T03:51:33.588Z,99.88
2017-08-09T03:52:33.589Z,99.78
2017-08-09T03:53:33.268Z,99.78
2017-08-09T03:54:33.576Z,99.68
2017-08-09T03:55:33.580Z,99.59
2017-08-09T03:56:33.574Z,99.4
2017-08-09T03:57:33.573Z,99.59
2017-08-09T03:58:33.554Z,99.59
2017-08-09T03:59:33.570Z,99.4
2017-08-09T04:00:33.559Z,99.59
2017-08-09T04:01:33.564Z,99.59
2017-08-09T04:02:33.545Z,99.78
2017-08-09T04:03:33.560Z,99.49
2017-08-09T04:04:33.550Z,99.4
2017-08-09T04:05:33.555Z,99.4
2017-08-09T04:06:33.540Z,99.68
2017-08-09T04:07:33.543Z,99.59
2017-08-09T04:08:33.798Z,99.88
2017-08-09T04:09:33.539Z,99.78
2017-08-09T04:10:33.544Z,99.59
2017-08-09T04:11:33.223Z,99.21
2017-08-09T04:12:33.526Z,99.06
2017-08-09T04:13:33.522Z,99.01
2017-08-09T04:14:33.532Z,99.26
2017-08-09T04:15:33.521Z,99.06
2017-08-09T04:16:33.517Z,98.58
2017-08-09T04:17:33.517Z,98.77
2017-08-09T04:18:33.530Z,98.87
2017-08-09T04:19:33.515Z,98.96
2017-08-09T04:20:33.511Z,98.49
2017-08-09T04:21:33.513Z,98.39
2017-08-09T04:22:33.491Z,98.39
2017-08-09T04:23:33.502Z,98.39
2017-08-09T04:24:33.502Z,98.39
2017-08-09T04:25:33.506Z,98.39
2017-08-09T04:26:33.503Z,98.29
2017-08-09T04:27:33.496Z,98.58
2017-08-09T04:28:33.495Z,98.77
2017-08-09T04:29:33.479Z,98.49
2017-08-09T04:30:33.187Z,98.87
2017-08-09T04:31:33.489Z,98.49
2017-08-09T04:32:33.478Z,98.39
2017-08-09T04:33:33.492Z,98.39
2017-08-09T04:34:33.471Z,98.29
2017-08-09T04:35:33.484Z,97.71
2017-08-09T04:36:33.470Z,97.71
2017-08-09T04:37:33.475Z,97.81
2017-08-09T04:38:33.462Z,97.71
2017-08-09T04:39:33.469Z,97.71
2017-08-09T04:40:33.467Z,98.1
2017-08-09T04:41:33.461Z,98
2017-08-09T04:42:33.153Z,98.1
2017-08-09T04:43:33.449Z,97.71
2017-08-09T04:44:33.453Z,97.62
2017-08-09T04:45:33.458Z,97.67
2017-08-09T04:46:33.453Z,97.47
2017-08-09T04:47:33.455Z,97.47
2017-08-09T04:48:33.447Z,97.57
2017-08-09T04:49:33.139Z,97.19
2017-08-09T04:50:33.449Z,97.19
2017-08-09T04:51:33.442Z,97.76
2017-08-09T04:52:33.446Z,97.09
2017-08-09T04:53:33.437Z,97.62
2017-08-09T04:54:33.428Z,96.94
2017-08-09T04:55:33.436Z,96.22
2017-08-09T04:56:33.429Z,95.4
2017-08-09T04:57:33.440Z,95.59
2017-08-09T04:58:33.441Z,94.29
2017-08-09T04:59:33.443Z,93.91
2017-08-09T05:00:33.436Z,93.37
2017-08-09T05:01:33.419Z,93.08
2017-08-09T05:02:33.432Z,92.41
2017-08-09T05:03:33.425Z,91.93
2017-08-09T05:04:33.436Z,91.3
2017-08-09T05:05:33.419Z,91.49
2017-08-09T05:06:33.432Z,91.15
2017-08-09T05:07:33.436Z,89.61
2017-08-09T05:08:33.433Z,89.26
2017-08-09T05:09:33.423Z,88.01
2017-08-09T05:10:33.439Z,87.95
2017-08-09T05:11:33.437Z,86.89
2017-08-09T05:12:33.127Z,86.45
2017-08-09T05:13:33.444Z,85.82
2017-08-09T05:14:33.443Z,84.66
2017-08-09T05:15:33.435Z,83.15
2017-08-09T05:16:33.443Z,82.03
2017-08-09T05:17:33.435Z,81.2
2017-08-09T05:18:33.463Z,79.88
2017-08-09T05:19:33.139Z,78.36
2017-08-09T05:20:33.457Z,77.57
2017-08-09T05:21:33.450Z,75.85
2017-08-09T05:22:33.472Z,74.54
2017-08-09T05:23:33.468Z,72.72
2017-08-09T05:24:33.470Z,71.56
2017-08-09T05:25:33.482Z,70.07
2017-08-09T05:26:33.487Z,69.13
2017-08-09T05:27:33.503Z,67.32
2017-08-09T05:28:33.493Z,66.96
2017-08-09T05:29:33.497Z,65.04
2017-08-09T05:30:33.503Z,64.09
2017-08-09T05:31:33.527Z,62.66
2017-08-09T05:32:33.532Z,61.49
2017-08-09T05:33:33.537Z,59.77
2017-08-09T05:34:33.546Z,59.3
2017-08-09T05:35:33.557Z,57.77
2017-08-09T05:36:33.565Z,55.65
2017-08-09T05:37:33.564Z,55.08
2017-08-09T05:38:33.576Z,54.5
2017-08-09T05:39:33.583Z,52.76
2017-08-09T05:40:33.599Z,52.98
2017-08-09T05:41:33.606Z,52.59
2017-08-09T05:42:33.619Z,51.51
2017-08-09T05:43:33.343Z,50.27
2017-08-09T05:44:33.625Z,49.31
2017-08-09T05:45:33.639Z,49.48
2017-08-09T05:46:33.641Z,49.41
2017-08-09T05:47:33.666Z,49.11
2017-08-09T05:48:33.661Z,49.11
2017-08-09T05:49:33.683Z,48.43
2017-08-09T05:50:33.690Z,48.06
2017-08-09T05:51:33.709Z,47.69
2017-08-09T05:52:33.708Z,46.91
2017-08-09T05:53:33.729Z,46.44
2017-08-09T05:54:33.724Z,45.57
2017-08-09T05:55:33.747Z,44.89
2017-08-09T05:56:33.770Z,44.42
2017-08-09T05:57:33.771Z,43.65
2017-08-09T05:58:33.765Z,43.26
2017-08-09T05:59:33.789Z,42.77
2017-08-09T06:00:33.800Z,42.1
2017-08-09T06:01:33.813Z,41.9
2017-08-09T06:02:33.818Z,42
2017-08-09T06:03:33.843Z,41.98
2017-08-09T06:04:33.847Z,41.88
2017-08-09T06:05:33.862Z,41.69
2017-08-09T06:06:33.856Z,41.69
2017-08-09T06:07:33.887Z,41.69
2017-08-09T06:08:33.892Z,41.69
2017-08-09T06:09:33.910Z,41.02
2017-08-09T06:10:33.905Z,40.63
2017-08-09T06:11:33.927Z,40.43
2017-08-09T06:12:33.943Z,40.23
2017-08-09T06:13:33.944Z,40.05
2017-08-09T06:14:33.956Z,40.35
2017-08-09T06:15:33.971Z,39.39
2017-08-09T06:16:33.981Z,39.28
2017-08-09T06:17:34.005Z,38.99
2017-08-09T06:18:34.019Z,38.71
2017-08-09T06:19:34.021Z,38.32
2017-08-09T06:20:34.036Z,37.45
2017-08-09T06:21:34.047Z,37.83
2017-08-09T06:22:34.061Z,37.81
2017-08-09T06:23:34.173Z,38.2
2017-08-09T06:24:34.093Z,37.81
2017-08-09T06:25:34.091Z,37.63
2017-08-09T06:26:33.808Z,37.74
2017-08-09T06:27:34.127Z,36.66
2017-08-09T06:28:34.153Z,36.17
2017-08-09T06:29:34.152Z,35.6
2017-08-09T06:30:34.151Z,34.92
2017-08-09T06:31:34.180Z,34.43
2017-08-09T06:32:34.193Z,33.84
2017-08-09T06:33:33.893Z,33.54
2017-08-09T06:34:34.220Z,33.84
2017-08-09T06:35:34.232Z,33.85
2017-08-09T06:36:34.273Z,33.95
2017-08-09T06:37:34.265Z,33.36
2017-08-09T06:38:34.288Z,33.16
2017-08-09T06:39:34.287Z,33.08
2017-08-09T06:40:34.321Z,32.98
2017-08-09T06:41:34.024Z,32.01
2017-08-09T06:42:34.342Z,31.63
2017-08-09T06:43:34.346Z,30.74
2017-08-09T06:44:34.370Z,29.77
2017-08-09T06:45:34.385Z,29.68
2017-08-09T06:46:34.405Z,30.18
2017-08-09T06:47:34.414Z,29.58
2017-08-09T06:48:34.116Z,29.78
2017-08-09T06:49:34.478Z,30.06
2017-08-09T06:50:34.452Z,30.34
2017-08-09T06:51:34.488Z,30.54
2017-08-09T06:52:34.491Z,30.64
2017-08-09T06:53:34.513Z,30.52
2017-08-09T06:54:34.529Z,30.52
2017-08-09T06:55:34.540Z,30.63
2017-08-09T06:56:34.565Z,30.73
2017-08-09T06:57:34.584Z,30.05
2017-08-09T06:58:34.587Z,30.54
2017-08-09T06:59:34.604Z,29.86
2017-08-09T07:00:34.602Z,30.06
2017-08-09T07:01:34.623Z,29.86
2017-08-09T07:02:34.342Z,30.46
2017-08-09T07:03:34.663Z,30.36
2017-08-09T07:04:34.675Z,30.05
2017-08-09T07:05:34.687Z,29.75
2017-08-09T07:06:34.698Z,29.83
2017-08-09T07:07:34.724Z,29.93
2017-08-09T07:08:34.735Z,29.54
2017-08-09T07:09:34.754Z,30.21
2017-08-09T07:10:34.762Z,30.02
2017-08-09T07:11:34.786Z,29.92
2017-08-09T07:12:34.776Z,30.21
2017-08-09T07:13:34.794Z,29.74
2017-08-09T07:14:34.817Z,29.46
2017-08-09T07:15:34.835Z,28.86
2017-08-09T07:16:34.853Z,28.76
2017-08-09T07:17:34.857Z,28.38
2017-08-09T07:18:34.862Z,28.48
2017-08-09T07:19:34.901Z,28.48
2017-08-09T07:20:34.899Z,28.18
2017-08-09T07:21:34.923Z,28.38
2017-08-09T07:22:34.935Z,28.18
2017-08-09T07:23:34.951Z,28.07
2017-08-09T07:24:34.961Z,28.18
2017-08-09T07:25:34.979Z,27.79
2017-08-09T07:26:34.675Z,27.29
2017-08-09T07:27:35.014Z,27.89
2017-08-09T07:28:35.009Z,28.18
2017-08-09T07:29:35.038Z,28.18
2017-08-09T07:30:35.052Z,28.28
2017-08-09T07:31:35.073Z,28.38
2017-08-09T07:32:35.091Z,27.09
2017-08-09T07:33:35.085Z,27.09
2017-08-09T07:34:35.110Z,28.08
2017-08-09T07:35:35.113Z,28.27
2017-08-09T07:36:35.143Z,28.85
2017-08-09T07:37:35.146Z,28.65
2017-08-09T07:38:35.168Z,28.06
2017-08-09T07:39:35.205Z,28.35
2017-08-09T07:40:35.198Z,28.35
2017-08-09T07:41:35.204Z,28.75
2017-08-09T07:42:35.230Z,29.13
2017-08-09T07:43:35.231Z,29.71
2017-08-09T07:44:35.252Z,29.51
2017-08-09T07:45:35.272Z,29.11
2017-08-09T07:46:35.277Z,29.51
2017-08-09T07:47:35.297Z,29.11
2017-08-09T07:48:35.310Z,28.64
2017-08-09T07:49:35.322Z,28.94
2017-08-09T07:50:35.329Z,29.06
2017-08-09T07:51:35.353Z,28.76
2017-08-09T07:52:35.060Z,28.27
2017-08-09T07:53:35.382Z,27.96
2017-08-09T07:54:35.405Z,28.25
2017-08-09T07:55:35.410Z,29.05
2017-08-09T07:56:35.428Z,28.93
2017-08-09T07:57:35.136Z,28.74
2017-08-09T07:58:35.443Z,28.83
2017-08-09T07:59:35.468Z,29.03
2017-08-09T08:00:35.482Z,28.35
2017-08-09T08:01:35.517Z,28.17
2017-08-09T08:02:35.501Z,28.27
2017-08-09T08:03:35.214Z,28.18
2017-08-09T08:04:35.230Z,27.9
2017-08-09T08:05:35.553Z,26.92
2017-08-09T08:06:35.575Z,26.62
2017-08-09T08:07:35.579Z,26.23
2017-08-09T08:08:35.610Z,26.21
2017-08-09T08:09:35.628Z,26.71
2017-08-09T08:10:35.626Z,26.81
2017-08-09T08:11:35.652Z,27
2017-08-09T08:12:35.660Z,27.19
2017-08-09T08:13:35.694Z,27.47
2017-08-09T08:14:35.686Z,28.25
2017-08-09T08:15:35.724Z,28.24
2017-08-09T08:16:35.730Z,28.92
2017-08-09T08:17:35.745Z,29.61
2017-08-09T08:18:35.758Z,29.79
2017-08-09T08:19:35.774Z,29.89
2017-08-09T08:20:35.794Z,29.89
2017-08-09T08:21:35.799Z,30.06
2017-08-09T08:22:35.811Z,30.26
2017-08-09T08:23:35.821Z,30.44
2017-08-09T08:24:35.839Z,30.82
2017-08-09T08:25:35.858Z,31.01
2017-08-09T08:26:35.869Z,31.6
2017-08-09T08:27:35.875Z,31.49
2017-08-09T08:28:35.897Z,31.98
2017-08-09T08:29:35.896Z,31.69
2017-08-09T08:30:35.910Z,32.86
2017-08-09T08:31:35.909Z,32.95
2017-08-09T08:32:35.929Z,33.25
2017-08-09T08:33:35.950Z,33.23
2017-08-09T08:34:35.962Z,33.31
2017-08-09T08:35:35.956Z,33.79
2017-08-09T08:36:35.984Z,34.97
2017-08-09T08:37:35.980Z,34.75
2017-08-09T08:38:35.995Z,34.95
2017-08-09T08:39:36.002Z,35.24
2017-08-09T08:40:36.021Z,35.34
2017-08-09T08:41:36.030Z,35.42
2017-08-09T08:42:36.048Z,35.72
2017-08-09T08:43:36.050Z,35.82
2017-08-09T08:44:36.058Z,35.91
2017-08-09T08:45:36.063Z,36.4
2017-08-09T08:46:36.088Z,36.49
2017-08-09T08:47:36.081Z,37.17
2017-08-09T08:48:36.109Z,37.45
2017-08-09T08:49:35.809Z,37.74
2017-08-09T08:50:36.124Z,38.12
2017-08-09T08:51:36.133Z,38.39
2017-08-09T08:52:36.142Z,38.59
2017-08-09T08:53:36.157Z,38.86
2017-08-09T08:54:36.177Z,39.64
2017-08-09T08:55:36.182Z,39.25
2017-08-09T08:56:36.186Z,40.21
2017-08-09T08:57:36.198Z,40.41
2017-08-09T08:58:36.193Z,40.39
2017-08-09T08:59:36.219Z,40.48
2017-08-09T09:00:36.215Z,40.76
2017-08-09T09:01:36.233Z,41.44
2017-08-09T09:02:35.931Z,41.25
2017-08-09T09:03:36.239Z,41.25
2017-08-09T09:04:36.257Z,40.95
2017-08-09T09:05:36.261Z,41.23
2017-08-09T09:06:36.274Z,41.33
2017-08-09T09:07:36.282Z,41.6
2017-08-09T09:08:36.281Z,42.19
2017-08-09T09:09:36.297Z,41.87
2017-08-09T09:10:36.304Z,41.97
2017-08-09T09:11:36.320Z,41.58
2017-08-09T09:12:36.311Z,41.48
2017-08-09T09:13:36.333Z,41.75
2017-08-09T09:14:36.324Z,42.55
2017-08-09T09:15:36.352Z,43.22
2017-08-09T09:16:36.350Z,44.29
2017-08-09T09:17:36.050Z,43.99
2017-08-09T09:18:36.052Z,44.29
2017-08-09T09:19:36.365Z,44.87
2017-08-09T09:20:36.375Z,44.68
2017-08-09T09:21:36.383Z,44.46
2017-08-09T09:22:36.389Z,44.17
2017-08-09T09:23:36.406Z,44.17
2017-08-09T09:24:36.403Z,44.37
2017-08-09T09:25:36.402Z,44.76
2017-08-09T09:26:36.424Z,45.03
2017-08-09T09:27:36.423Z,44.73
2017-08-09T09:28:36.434Z,44.44
2017-08-09T09:29:36.436Z,45.32
2017-08-09T09:30:36.445Z,45.12
2017-08-09T09:31:36.454Z,45.49
2017-08-09T09:32:36.450Z,45.2
2017-08-09T09:33:36.474Z,44.59
2017-08-09T09:34:36.469Z,44.59
2017-08-09T09:35:36.471Z,44.89
2017-08-09T09:36:36.473Z,45.35
2017-08-09T09:37:36.179Z,45.54
2017-08-09T09:38:36.493Z,45.94
2017-08-09T09:39:36.502Z,46.5
2017-08-09T09:40:36.492Z,46.88
2017-08-09T09:41:36.503Z,46.88
2017-08-09T09:42:36.513Z,49.12
2017-08-09T09:43:36.519Z,49.12
2017-08-09T09:44:36.510Z,48.44
2017-08-09T09:45:36.543Z,48.25
2017-08-09T09:46:36.534Z,48.15
2017-08-09T09:47:36.535Z,48.05
2017-08-09T09:48:36.546Z,48.32
2017-08-09T09:49:36.552Z,48.61
2017-08-09T09:50:36.549Z,48.51
2017-08-09T09:51:36.584Z,48.13
2017-08-09T09:52:36.560Z,47.83
2017-08-09T09:53:36.566Z,48.22
2017-08-09T09:54:36.584Z,48.03
2017-08-09T09:55:36.569Z,47.74
2017-08-09T09:56:36.577Z,48.22
2017-08-09T09:57:36.593Z,48.13
2017-08-09T09:58:36.601Z,47.74
2017-08-09T09:59:36.293Z,48.03
2017-08-09T10:00:36.603Z,48.03
2017-08-09T10:01:36.605Z,47.64
2017-08-09T10:02:36.600Z,48.13
2017-08-09T10:03:36.616Z,48.22
2017-08-09T10:04:36.318Z,48.61
2017-08-09T10:05:36.625Z,49.68
2017-08-09T10:06:36.622Z,49.58
2017-08-09T10:07:36.640Z,49.56
2017-08-09T10:08:36.648Z,49.37
2017-08-09T10:09:36.641Z,49.76
2017-08-09T10:10:36.337Z,49.85
2017-08-09T10:11:36.662Z,50.43
2017-08-09T10:12:36.668Z,50.82
2017-08-09T10:13:36.663Z,50.04
2017-08-09T10:14:36.669Z,50.14
2017-08-09T10:15:36.672Z,50.24
2017-08-09T10:16:36.690Z,51.01
2017-08-09T10:17:36.685Z,50.99
2017-08-09T10:18:36.374Z,50.02
2017-08-09T10:19:36.694Z,50.73
2017-08-09T10:20:36.695Z,50.14
2017-08-09T10:21:36.713Z,50.53
2017-08-09T10:22:36.397Z,50.43
2017-08-09T10:23:36.710Z,50.04
2017-08-09T10:24:36.712Z,50.92
2017-08-09T10:25:36.402Z,50.63
2017-08-09T10:26:36.404Z,50.34
2017-08-09T10:27:36.724Z,51.5
2017-08-09T10:28:36.737Z,51.57
2017-08-09T10:29:36.418Z,51.79
2017-08-09T10:30:36.424Z,50.92
2017-08-09T10:31:36.727Z,51.09
2017-08-09T10:32:36.746Z,51.09
2017-08-09T10:33:36.745Z,51.38
2017-08-09T10:34:36.751Z,50.89
2017-08-09T10:35:36.758Z,50.8
2017-08-09T10:36:36.759Z,51.28
2017-08-09T10:37:36.759Z,50.99
2017-08-09T10:38:36.767Z,51.77
2017-08-09T10:39:36.761Z,52.35
2017-08-09T10:40:36.777Z,51.87
2017-08-09T10:41:36.780Z,50.92
2017-08-09T10:42:36.781Z,50.41
2017-08-09T10:43:36.776Z,50.04
2017-08-09T10:44:36.810Z,49.56
2017-08-09T10:45:36.788Z,50.43
2017-08-09T10:46:36.795Z,50.41
2017-08-09T10:47:36.805Z,50.31
2017-08-09T10:48:36.816Z,50.99
2017-08-09T10:49:36.810Z,51.48
2017-08-09T10:50:36.822Z,50.89
2017-08-09T10:51:36.819Z,50.99
2017-08-09T10:52:36.824Z,51.18
2017-08-09T10:53:36.815Z,52.25
2017-08-09T10:54:36.833Z,51.97
2017-08-09T10:55:36.835Z,51.87
2017-08-09T10:56:36.840Z,51.48
2017-08-09T10:57:36.842Z,51.21
2017-08-09T10:58:36.842Z,50.24
2017-08-09T10:59:36.838Z,49.66
2017-08-09T11:00:36.844Z,49.56
2017-08-09T11:01:36.853Z,49.56
2017-08-09T11:02:36.859Z,49.66
2017-08-09T11:03:36.868Z,50.56
2017-08-09T11:04:36.872Z,50.26
2017-08-09T11:05:36.873Z,49.58
2017-08-09T11:06:36.874Z,49.58
2017-08-09T11:07:36.885Z,50.29
2017-08-09T11:08:36.887Z,49.22
2017-08-09T11:09:36.882Z,48.15
2017-08-09T11:10:36.897Z,48.15
2017-08-09T11:11:36.883Z,47.96
2017-08-09T11:12:36.902Z,47.76
2017-08-09T11:13:36.926Z,48.15
2017-08-09T11:14:36.916Z,48.15
2017-08-09T11:15:36.907Z,48.25
2017-08-09T11:16:36.916Z,48.15
2017-08-09T11:17:36.920Z,47.96
2017-08-09T11:18:36.929Z,47.56
2017-08-09T11:19:36.939Z,46.69
2017-08-09T11:20:36.942Z,46.13
2017-08-09T11:21:36.939Z,46.69
2017-08-09T11:22:36.952Z,46.88
2017-08-09T11:23:36.644Z,46.98
2017-08-09T11:24:36.960Z,46.98
2017-08-09T11:25:36.947Z,47.17
2017-08-09T11:26:36.974Z,46.98
2017-08-09T11:27:36.961Z,47.76
2017-08-09T11:28:36.978Z,47.2
2017-08-09T11:29:36.976Z,47.2
2017-08-09T11:30:36.678Z,46.13
2017-08-09T11:31:36.977Z,46.81
2017-08-09T11:32:36.994Z,45.54
2017-08-09T11:33:36.994Z,45.64
2017-08-09T11:34:36.693Z,46.03
2017-08-09T11:35:37.008Z,46.42
2017-08-09T11:36:37.015Z,46.61
2017-08-09T11:37:37.009Z,46.61
2017-08-09T11:38:37.016Z,46.91
2017-08-09T11:39:37.022Z,47.1
2017-08-09T11:40:36.720Z,45.94
2017-08-09T11:41:37.036Z,45.84
2017-08-09T11:42:37.041Z,45.06
2017-08-09T11:43:37.039Z,44.76
2017-08-09T11:44:37.052Z,44.96
2017-08-09T11:45:36.740Z,45.15
2017-08-09T11:46:37.056Z,45.35
2017-08-09T11:47:37.062Z,45.35
2017-08-09T11:48:37.054Z,45.35
2017-08-09T11:49:37.069Z,45.74
2017-08-09T11:50:37.075Z,46.03
2017-08-09T11:51:37.087Z,46.13
2017-08-09T11:52:37.084Z,45.86
2017-08-09T11:53:36.781Z,45.37
2017-08-09T11:54:37.095Z,45.15
2017-08-09T11:55:37.101Z,45.64
2017-08-09T11:56:37.091Z,45.94
2017-08-09T11:57:37.107Z,45.35
2017-08-09T11:58:37.100Z,45.15
2017-08-09T11:59:37.123Z,44.86
2017-08-09T12:00:37.115Z,44.86
2017-08-09T12:01:36.818Z,44.49
2017-08-09T12:02:37.134Z,44.49
2017-08-09T12:03:37.129Z,44.89
2017-08-09T12:04:37.128Z,45.47
2017-08-09T12:05:37.151Z,45.57
2017-08-09T12:06:37.153Z,45.37
2017-08-09T12:07:37.150Z,45.37
2017-08-09T12:08:37.162Z,44.69
2017-08-09T12:09:37.164Z,44.69
2017-08-09T12:10:37.162Z,44.4
2017-08-09T12:11:37.174Z,44.01
2017-08-09T12:12:37.178Z,43.62
2017-08-09T12:13:37.192Z,43.62
2017-08-09T12:14:37.184Z,43.54
2017-08-09T12:15:37.198Z,43.84
2017-08-09T12:16:37.191Z,43.05
2017-08-09T12:17:37.222Z,43.25
2017-08-09T12:18:37.200Z,43.25
2017-08-09T12:19:37.219Z,42.86
2017-08-09T12:20:37.225Z,43.35
2017-08-09T12:21:37.225Z,43.54
2017-08-09T12:22:37.228Z,44.03
2017-08-09T12:23:37.229Z,44.03
2017-08-09T12:24:37.245Z,44.52
2017-08-09T12:25:37.237Z,44.59
2017-08-09T12:26:37.252Z,43.91
2017-08-09T12:27:37.264Z,43.52
2017-08-09T12:28:37.251Z,43.43
2017-08-09T12:29:37.266Z,43.62
2017-08-09T12:30:37.273Z,43.7
2017-08-09T12:31:37.285Z,43.4
2017-08-09T12:32:36.965Z,44.96
2017-08-09T12:33:37.290Z,44.59
2017-08-09T12:34:37.319Z,44.79
2017-08-09T12:35:37.293Z,44.57
2017-08-09T12:36:37.306Z,44.48
2017-08-09T12:37:37.307Z,43.79
2017-08-09T12:38:37.309Z,44.38
2017-08-09T12:39:37.307Z,44.35
2017-08-09T12:40:37.321Z,44.35
2017-08-09T12:41:37.325Z,44.84
2017-08-09T12:42:37.335Z,44.84
2017-08-09T12:43:37.327Z,44.84
2017-08-09T12:44:37.344Z,44.55
2017-08-09T12:45:37.344Z,45.04
2017-08-09T12:46:37.352Z,45.52
2017-08-09T12:47:37.347Z,45.23
2017-08-09T12:48:37.358Z,45.23
2017-08-09T12:49:37.360Z,45.52
2017-08-09T12:50:37.372Z,45.42
2017-08-09T12:51:37.368Z,45.14
2017-08-09T12:52:37.377Z,44.94
2017-08-09T12:53:37.381Z,45.04
2017-08-09T12:54:37.373Z,45.04